Time;durP1;ratioP1;P1;durP2;ratioP2;P2;SDS_P1;SDS_P2;PMS_P1;PMS_P2;Temp;Humidity;BMP_temperature;BMP_pressure;BME280_temperature;BME280_humidity;BME280_pressure;Samples;Min_cycle;Max_cycle;Signal;HPM_P1;HPM_P2
2022/04/24 00:01:51;;;;;;;0.40;0.30;;;8.10;99.90;;;;;;5111753;27;20986;-91
2022/04/24 00:04:18;;;;;;;0.90;0.90;;;8.10;99.90;;;;;;5105030;27;20453;-91
2022/04/24 00:06:46;;;;;;;0.30;0.20;;;8.10;99.90;;;;;;5108081;28;20775;-91
2022/04/24 00:09:14;;;;;;;0.67;0.67;;;8.10;99.90;;;;;;5106125;27;20555;-90
2022/04/24 00:11:41;;;;;;;1.30;0.87;;;8.10;99.90;;;;;;5106787;28;20543;-90
2022/04/24 00:14:10;;;;;;;0.30;0.10;;;8.10;99.90;;;;;;5104817;28;20456;-90
2022/04/24 00:16:39;;;;;;;0.30;0.10;;;8.10;99.90;;;;;;5106087;27;20481;-91
2022/04/24 00:19:07;;;;;;;1.00;1.00;;;8.10;99.90;;;;;;5104144;28;21173;-91
2022/04/24 00:21:34;;;;;;;0.40;0.40;;;8.20;99.90;;;;;;5108502;28;20876;-91
2022/04/24 00:24:01;;;;;;;0.30;0.20;;;8.20;99.90;;;;;;5105186;28;20473;-91
2022/04/24 00:26:29;;;;;;;0.50;0.50;;;8.10;99.90;;;;;;5106471;28;20450;-91
2022/04/24 00:28:55;;;;;;;0.30;0.20;;;8.10;99.90;;;;;;5109102;27;20474;-91
2022/04/24 00:31:22;;;;;;;1.60;1.03;;;8.10;99.90;;;;;;5107089;28;20477;-91
2022/04/24 00:33:51;;;;;;;0.30;0.20;;;8.10;99.90;;;;;;5108545;28;20514;-91
2022/04/24 00:36:18;;;;;;;0.30;0.20;;;8.10;99.90;;;;;;5107949;27;20937;-91
2022/04/24 00:38:45;;;;;;;0.40;0.40;;;8.10;99.90;;;;;;5106568;28;20445;-91
2022/04/24 00:41:12;;;;;;;0.87;0.87;;;8.10;99.90;;;;;;5106440;28;20838;-91
2022/04/24 00:43:39;;;;;;;0.40;0.30;;;8.20;99.90;;;;;;5107472;28;20936;-91
2022/04/24 00:46:13;;;;;;;0.67;0.67;;;8.20;99.90;;;;;;5104418;28;20444;-91
2022/04/24 00:48:41;;;;;;;0.77;0.77;;;8.20;99.90;;;;;;5128044;28;20466;-91
2022/04/24 00:51:09;;;;;;;2.10;1.90;;;8.20;99.90;;;;;;5135145;27;20513;-91
2022/04/24 00:53:37;;;;;;;0.40;0.30;;;8.20;99.90;;;;;;5132645;27;20468;-91
2022/04/24 00:56:05;;;;;;;1.97;1.80;;;8.20;99.90;;;;;;5116034;28;20811;-90
2022/04/24 00:58:33;;;;;;;0.60;0.57;;;8.20;99.90;;;;;;5106749;28;20925;-91
2022/04/24 01:01:01;;;;;;;0.50;0.50;;;8.20;99.90;;;;;;5114173;28;20509;-91
2022/04/24 01:03:29;;;;;;;0.30;0.20;;;8.20;99.90;;;;;;5104574;28;20469;-91
2022/04/24 01:05:56;;;;;;;0.40;0.30;;;8.20;99.90;;;;;;5107173;28;20477;-91
2022/04/24 01:08:25;;;;;;;2.27;2.10;;;8.30;99.90;;;;;;5104117;28;20515;-91
2022/04/24 01:10:52;;;;;;;0.67;0.37;;;8.20;99.90;;;;;;5105979;28;20484;-91
2022/04/24 01:13:18;;;;;;;0.43;0.40;;;8.20;99.90;;;;;;5104853;28;21559;-91
2022/04/24 01:15:45;;;;;;;0.40;0.33;;;8.30;99.90;;;;;;5106781;28;20463;-90
2022/04/24 01:18:14;;;;;;;0.57;0.57;;;8.30;99.90;;;;;;5106723;28;20458;-91
2022/04/24 01:20:42;;;;;;;0.30;0.20;;;8.30;99.90;;;;;;5112552;27;20473;-91
2022/04/24 01:23:09;;;;;;;0.77;0.77;;;8.30;99.90;;;;;;5108989;27;20475;-90
2022/04/24 01:25:37;;;;;;;0.30;0.10;;;8.30;99.90;;;;;;5110056;27;20901;-91
2022/04/24 01:28:08;;;;;;;0.70;0.70;;;8.30;99.90;;;;;;5108038;28;20583;-91
2022/04/24 01:30:35;;;;;;;0.53;0.50;;;8.40;99.90;;;;;;5109567;28;20485;-91
2022/04/24 01:33:03;;;;;;;0.57;0.57;;;8.40;99.90;;;;;;5113830;27;20898;-90
2022/04/24 01:35:30;;;;;;;1.37;1.30;;;8.40;99.90;;;;;;5109984;28;20449;-91
2022/04/24 01:37:58;;;;;;;1.40;1.40;;;8.40;99.90;;;;;;5115284;27;20529;-91
2022/04/24 01:40:25;;;;;;;1.03;0.77;;;8.40;99.90;;;;;;5107614;28;20482;-90
2022/04/24 01:42:52;;;;;;;0.30;0.10;;;8.40;99.90;;;;;;5106158;27;20510;-91
2022/04/24 01:45:19;;;;;;;1.43;1.20;;;8.40;99.90;;;;;;5122151;27;20841;-90
2022/04/24 01:47:46;;;;;;;5.63;3.10;;;8.40;99.90;;;;;;5116175;27;20454;-91
2022/04/24 01:50:13;;;;;;;1.23;0.80;;;8.40;99.90;;;;;;5105762;28;20526;-91
2022/04/24 01:52:40;;;;;;;0.30;0.20;;;8.40;99.90;;;;;;5108422;27;20528;-91
2022/04/24 01:55:09;;;;;;;0.30;0.20;;;8.40;99.90;;;;;;5115520;27;20483;-91
2022/04/24 01:57:36;;;;;;;3.50;2.53;;;8.40;99.90;;;;;;5109898;27;20523;-91
2022/04/24 02:00:03;;;;;;;0.43;0.37;;;8.30;99.90;;;;;;5108793;27;20540;-90
2022/04/24 02:02:30;;;;;;;0.40;0.27;;;8.30;99.90;;;;;;5110960;27;20863;-90
2022/04/24 02:04:57;;;;;;;0.40;0.20;;;8.40;99.90;;;;;;5109299;27;21847;-91
2022/04/24 02:07:24;;;;;;;0.30;0.20;;;8.40;99.90;;;;;;5108828;27;20784;-90
2022/04/24 02:09:51;;;;;;;0.30;0.20;;;8.40;99.90;;;;;;5108483;27;20466;-91
2022/04/24 02:12:19;;;;;;;0.40;0.40;;;8.40;99.90;;;;;;5107379;27;20562;-91
2022/04/24 02:14:46;;;;;;;0.30;0.30;;;8.30;99.90;;;;;;5108909;27;20469;-91
2022/04/24 02:17:13;;;;;;;0.47;0.47;;;8.40;99.90;;;;;;5108533;27;20929;-90
2022/04/24 02:19:40;;;;;;;0.73;0.73;;;8.40;99.90;;;;;;5108067;27;20477;-91
2022/04/24 02:22:07;;;;;;;0.30;0.20;;;8.40;99.90;;;;;;5109451;27;20919;-91
2022/04/24 02:24:34;;;;;;;2.07;2.07;;;8.40;99.90;;;;;;5109945;27;20514;-91
2022/04/24 02:27:02;;;;;;;1.80;1.23;;;8.40;99.90;;;;;;5108768;27;20461;-90
2022/04/24 02:29:30;;;;;;;0.43;0.40;;;8.30;99.90;;;;;;5116072;27;20860;-91
2022/04/24 02:31:58;;;;;;;0.30;0.30;;;8.30;99.90;;;;;;5112975;27;20489;-90
2022/04/24 02:34:26;;;;;;;0.30;0.10;;;8.30;99.90;;;;;;5108067;27;20465;-91
2022/04/24 02:36:53;;;;;;;0.30;0.20;;;8.30;99.90;;;;;;5110123;27;20470;-91
2022/04/24 02:39:20;;;;;;;0.30;0.20;;;8.30;99.90;;;;;;5107544;27;20521;-91
2022/04/24 02:41:47;;;;;;;1.80;1.70;;;8.30;99.90;;;;;;5124107;27;20470;-91
2022/04/24 02:44:14;;;;;;;1.80;1.70;;;8.30;99.90;;;;;;5111025;27;20523;-90
2022/04/24 02:46:42;;;;;;;0.73;0.73;;;8.30;99.90;;;;;;5112277;27;20442;-90
2022/04/24 02:49:09;;;;;;;0.93;0.93;;;8.30;99.90;;;;;;5108165;27;20461;-90
2022/04/24 02:51:36;;;;;;;1.63;1.10;;;8.30;99.90;;;;;;5114215;27;20481;-91
2022/04/24 02:54:03;;;;;;;1.47;1.47;;;8.30;99.90;;;;;;5110820;27;20789;-91
2022/04/24 02:56:30;;;;;;;0.50;0.50;;;8.30;99.90;;;;;;5110016;27;20921;-90
2022/04/24 02:58:57;;;;;;;0.30;0.20;;;8.30;99.90;;;;;;5107880;27;20457;-91
2022/04/24 03:01:24;;;;;;;0.30;0.10;;;8.30;99.90;;;;;;5111894;27;20441;-90
2022/04/24 03:03:52;;;;;;;0.30;0.30;;;8.30;99.90;;;;;;5107774;27;20526;-90
2022/04/24 03:06:20;;;;;;;2.60;2.50;;;8.20;99.90;;;;;;5108774;27;20518;-90
2022/04/24 03:08:47;;;;;;;0.90;0.90;;;8.20;99.90;;;;;;5108266;28;20442;-91
2022/04/24 03:11:15;;;;;;;0.60;0.60;;;8.30;99.90;;;;;;5106745;27;20556;-90
2022/04/24 03:13:42;;;;;;;0.30;0.30;;;8.30;99.90;;;;;;5106879;27;20561;-90
2022/04/24 03:16:09;;;;;;;0.40;0.30;;;8.30;99.90;;;;;;5105895;27;20726;-91
2022/04/24 03:18:36;;;;;;;1.03;0.87;;;8.30;99.90;;;;;;5108104;28;20816;-91
2022/04/24 03:21:05;;;;;;;0.30;0.20;;;8.20;99.90;;;;;;5106228;28;20468;-90
2022/04/24 03:23:32;;;;;;;0.60;0.60;;;8.30;99.90;;;;;;5107239;27;20530;-90
2022/04/24 03:25:58;;;;;;;1.30;0.50;;;8.30;99.90;;;;;;5122996;27;20453;-91
2022/04/24 03:28:25;;;;;;;1.20;1.20;;;8.30;99.90;;;;;;5114031;27;20473;-90
2022/04/24 03:30:53;;;;;;;0.30;0.20;;;8.40;99.90;;;;;;5109274;27;21041;-90
2022/04/24 03:33:20;;;;;;;1.03;1.03;;;8.30;99.90;;;;;;5107447;27;21028;-90
2022/04/24 03:35:46;;;;;;;1.33;1.33;;;8.30;99.90;;;;;;5109943;27;20487;-90
2022/04/24 03:38:15;;;;;;;0.30;0.17;;;8.30;99.90;;;;;;5123743;27;20440;-91
2022/04/24 03:40:42;;;;;;;0.30;0.10;;;8.30;99.90;;;;;;5116179;27;20460;-90
2022/04/24 03:43:09;;;;;;;0.30;0.30;;;8.40;99.90;;;;;;5107876;27;20544;-91
2022/04/24 03:45:36;;;;;;;0.80;0.80;;;8.40;99.90;;;;;;5107377;27;20784;-90
2022/04/24 03:48:03;;;;;;;0.40;0.23;;;8.40;99.90;;;;;;5109660;27;20471;-90
2022/04/24 03:50:30;;;;;;;0.30;0.20;;;8.30;99.90;;;;;;5108150;27;20444;-90
2022/04/24 03:52:57;;;;;;;0.30;0.30;;;8.30;99.90;;;;;;5107713;28;20558;-91
2022/04/24 03:55:25;;;;;;;1.20;0.70;;;8.30;99.90;;;;;;5108065;27;20921;-91
2022/04/24 03:57:52;;;;;;;0.30;0.20;;;8.40;99.90;;;;;;5110250;27;20465;-90
2022/04/24 04:00:19;;;;;;;1.80;1.07;;;8.40;99.90;;;;;;5108457;27;20449;-90
2022/04/24 04:02:48;;;;;;;0.93;0.83;;;8.40;99.90;;;;;;5106798;28;20529;-90
2022/04/24 04:05:16;;;;;;;0.87;0.87;;;8.40;99.90;;;;;;5108310;27;20531;-90
2022/04/24 04:07:43;;;;;;;0.87;0.20;;;8.50;99.90;;;;;;5107005;27;20477;-90
2022/04/24 04:10:11;;;;;;;0.30;0.20;;;8.50;99.90;;;;;;5107024;27;20520;-91
2022/04/24 04:12:39;;;;;;;0.30;0.20;;;8.40;99.90;;;;;;5107056;27;20538;-90
2022/04/24 04:15:08;;;;;;;0.30;0.30;;;8.40;99.90;;;;;;5106100;28;20840;-90
2022/04/24 04:17:35;;;;;;;0.30;0.20;;;8.40;99.90;;;;;;5104893;28;20963;-90
2022/04/24 04:20:02;;;;;;;4.93;1.27;;;8.40;99.90;;;;;;5108548;27;20493;-90
2022/04/24 04:22:29;;;;;;;2.33;2.23;;;8.50;99.90;;;;;;5110720;27;20454;-91
2022/04/24 04:24:56;;;;;;;2.10;1.13;;;8.40;99.90;;;;;;5108963;27;20717;-91
2022/04/24 04:27:26;;;;;;;0.90;0.60;;;8.50;99.90;;;;;;5106587;28;20518;-90
2022/04/24 04:29:55;;;;;;;0.97;0.40;;;8.50;99.90;;;;;;5107308;28;20469;-91
2022/04/24 04:32:22;;;;;;;0.43;0.40;;;8.40;99.90;;;;;;5104658;28;20482;-90
2022/04/24 04:34:49;;;;;;;2.57;2.37;;;8.40;99.90;;;;;;5105772;28;20503;-90
2022/04/24 04:37:16;;;;;;;6.23;0.73;;;8.50;99.90;;;;;;5104189;28;20514;-90
2022/04/24 04:39:43;;;;;;;2.20;0.73;;;8.50;99.90;;;;;;5108891;28;20481;-90
2022/04/24 04:42:10;;;;;;;0.53;0.50;;;8.40;99.90;;;;;;5104508;28;20522;-91
2022/04/24 04:44:37;;;;;;;1.17;1.17;;;8.50;99.90;;;;;;5105367;28;20917;-91
2022/04/24 04:47:07;;;;;;;0.43;0.40;;;8.40;99.90;;;;;;5106898;27;20482;-91
2022/04/24 04:49:34;;;;;;;0.30;0.30;;;8.40;99.90;;;;;;5109596;28;20927;-91
2022/04/24 04:52:01;;;;;;;0.73;0.60;;;8.40;99.90;;;;;;5107305;28;20960;-89
2022/04/24 04:54:28;;;;;;;0.80;0.20;;;8.50;99.90;;;;;;5106035;27;21086;-90
2022/04/24 04:56:55;;;;;;;0.60;0.60;;;8.50;99.90;;;;;;5113053;27;20465;-90
2022/04/24 04:59:22;;;;;;;0.30;0.20;;;8.60;99.90;;;;;;5112898;27;20510;-90
2022/04/24 05:01:49;;;;;;;0.30;0.20;;;8.70;99.90;;;;;;5111274;27;21034;-90
2022/04/24 05:04:17;;;;;;;0.50;0.50;;;8.70;99.90;;;;;;5110238;27;20524;-89
2022/04/24 05:06:44;;;;;;;0.77;0.37;;;8.80;99.90;;;;;;5117287;27;20771;-90
2022/04/24 05:09:11;;;;;;;0.80;0.80;;;8.90;99.90;;;;;;5109528;27;20458;-89
2022/04/24 05:11:39;;;;;;;0.40;0.40;;;8.90;99.90;;;;;;5113033;27;20488;-90
2022/04/24 05:14:06;;;;;;;0.40;0.20;;;8.90;99.90;;;;;;5111211;27;20453;-91
2022/04/24 05:16:33;;;;;;;1.53;1.13;;;8.80;99.90;;;;;;5112020;27;20785;-90
2022/04/24 05:19:00;;;;;;;1.17;1.17;;;8.80;99.90;;;;;;5113751;27;20744;-90
2022/04/24 05:21:28;;;;;;;3.00;2.00;;;8.80;99.90;;;;;;5109790;27;20902;-90
2022/04/24 05:23:55;;;;;;;0.40;0.40;;;8.80;99.90;;;;;;5116093;27;20534;-90
2022/04/24 05:26:22;;;;;;;0.30;0.20;;;8.70;99.90;;;;;;5111183;27;20870;-90
2022/04/24 05:28:49;;;;;;;0.43;0.30;;;8.80;99.90;;;;;;5113091;27;20993;-90
2022/04/24 05:31:16;;;;;;;0.50;0.50;;;8.80;99.90;;;;;;5107903;27;20701;-90
2022/04/24 05:33:43;;;;;;;2.53;2.40;;;8.90;99.90;;;;;;5110193;27;20964;-90
2022/04/24 05:36:10;;;;;;;0.30;0.20;;;8.90;99.90;;;;;;5109646;27;20959;-89
2022/04/24 05:38:39;;;;;;;0.47;0.47;;;9.00;99.90;;;;;;5107918;27;20518;-90
2022/04/24 05:41:06;;;;;;;0.83;0.83;;;9.20;99.90;;;;;;5110356;27;20461;-90
2022/04/24 05:43:33;;;;;;;0.33;0.23;;;9.20;99.90;;;;;;5110802;27;20449;-90
2022/04/24 05:46:00;;;;;;;0.30;0.20;;;9.30;99.90;;;;;;5115249;27;20469;-90
2022/04/24 05:48:27;;;;;;;0.60;0.60;;;9.40;99.90;;;;;;5142022;27;20486;-90
2022/04/24 05:50:54;;;;;;;0.60;0.40;;;9.40;99.90;;;;;;5132730;27;20462;-90
2022/04/24 05:53:21;;;;;;;1.73;0.30;;;9.50;99.90;;;;;;5117216;27;20481;-90
2022/04/24 05:55:50;;;;;;;2.83;1.70;;;9.30;99.90;;;;;;5113477;27;20461;-90
2022/04/24 05:58:17;;;;;;;0.30;0.17;;;9.20;99.90;;;;;;5112861;27;20457;-90
2022/04/24 06:00:44;;;;;;;0.57;0.40;;;9.20;99.90;;;;;;5124673;27;20909;-90
2022/04/24 06:03:11;;;;;;;0.30;0.10;;;9.20;99.90;;;;;;5111593;27;20930;-90
2022/04/24 06:05:38;;;;;;;0.63;0.63;;;9.20;99.90;;;;;;5110831;27;21251;-90
2022/04/24 06:08:06;;;;;;;3.93;2.93;;;9.20;99.90;;;;;;5110897;27;20462;-90
2022/04/24 06:10:33;;;;;;;0.53;0.53;;;9.20;99.90;;;;;;5113247;27;20897;-90
2022/04/24 06:13:01;;;;;;;0.47;0.47;;;9.20;99.90;;;;;;5110104;27;20947;-90
2022/04/24 06:15:29;;;;;;;1.13;0.20;;;9.30;99.90;;;;;;5117085;27;20794;-90
2022/04/24 06:17:57;;;;;;;0.50;0.50;;;9.40;99.90;;;;;;5113159;27;20473;-90
2022/04/24 06:20:26;;;;;;;0.40;0.30;;;9.40;99.90;;;;;;5105204;28;20989;-90
2022/04/24 06:22:54;;;;;;;0.40;0.40;;;9.50;99.90;;;;;;5117342;27;20457;-90
2022/04/24 06:25:23;;;;;;;0.40;0.40;;;9.50;99.90;;;;;;5113104;27;20551;-90
2022/04/24 06:27:52;;;;;;;1.27;1.27;;;9.60;99.90;;;;;;5116666;27;20863;-90
2022/04/24 06:30:22;;;;;;;1.20;1.20;;;9.50;99.90;;;;;;5119099;27;20477;-90
2022/04/24 06:32:49;;;;;;;0.53;0.53;;;9.60;99.90;;;;;;5114856;27;20486;-90
2022/04/24 06:35:18;;;;;;;0.80;0.80;;;9.60;99.90;;;;;;5107370;27;20885;-90
2022/04/24 06:37:47;;;;;;;0.60;0.50;;;9.60;99.90;;;;;;5124377;27;20960;-90
2022/04/24 06:40:15;;;;;;;0.60;0.23;;;9.60;99.90;;;;;;5106960;28;20515;-91
2022/04/24 06:42:50;;;;;;;0.30;0.23;;;9.70;99.90;;;;;;5112926;27;20469;-90
2022/04/24 06:45:20;;;;;;;0.97;0.40;;;9.60;99.90;;;;;;5109625;27;20692;-91
2022/04/24 06:47:49;;;;;;;2.10;0.93;;;9.70;99.90;;;;;;5115450;27;20446;-93
2022/04/24 06:50:16;;;;;;;0.67;0.67;;;9.70;99.90;;;;;;5115934;27;20461;-92
2022/04/24 06:52:43;;;;;;;0.57;0.57;;;9.60;99.90;;;;;;5119318;27;20485;-92
2022/04/24 06:55:10;;;;;;;0.50;0.50;;;9.60;99.90;;;;;;5109896;27;20489;-91
2022/04/24 06:57:37;;;;;;;1.67;0.73;;;9.70;99.90;;;;;;5107174;27;20911;-92
2022/04/24 07:00:06;;;;;;;0.50;0.20;;;10.00;99.90;;;;;;5123345;27;20829;-92
2022/04/24 07:02:33;;;;;;;0.30;0.20;;;10.40;99.90;;;;;;5107176;28;20442;-95
2022/04/24 07:05:01;;;;;;;0.40;0.30;;;10.70;99.90;;;;;;5108473;28;20446;-93
2022/04/24 07:07:28;;;;;;;0.40;0.40;;;11.10;99.90;;;;;;5109718;27;20534;-91
2022/04/24 07:09:55;;;;;;;0.90;0.50;;;11.30;99.90;;;;;;5118018;27;20501;-91
2022/04/24 07:12:22;;;;;;;0.30;0.20;;;11.60;99.90;;;;;;5106339;28;21221;-92
2022/04/24 07:14:49;;;;;;;0.80;0.60;;;11.90;99.90;;;;;;5120485;27;20945;-92
2022/04/24 07:17:18;;;;;;;0.70;0.70;;;12.00;99.90;;;;;;5105094;27;20947;-92
2022/04/24 07:19:45;;;;;;;0.30;0.20;;;12.10;99.90;;;;;;5107152;27;20972;-90
2022/04/24 07:22:14;;;;;;;5.20;1.70;;;12.40;99.90;;;;;;5106277;27;20457;-90
2022/04/24 07:24:40;;;;;;;0.40;0.37;;;12.30;99.90;;;;;;5114494;27;20466;-91
2022/04/24 07:27:07;;;;;;;0.40;0.30;;;12.40;99.90;;;;;;5107709;27;20476;-91
2022/04/24 07:29:34;;;;;;;0.40;0.30;;;12.30;99.90;;;;;;5110149;27;21225;-91
2022/04/24 07:32:01;;;;;;;1.50;0.87;;;12.30;99.90;;;;;;5106995;27;20471;-90
2022/04/24 07:34:28;;;;;;;0.77;0.77;;;12.20;99.90;;;;;;5109292;27;20465;-91
2022/04/24 07:36:55;;;;;;;0.40;0.30;;;12.20;99.90;;;;;;5105915;27;20466;-92
2022/04/24 07:39:24;;;;;;;0.30;0.20;;;12.00;99.90;;;;;;5111953;27;20534;-92
2022/04/24 07:41:50;;;;;;;1.67;0.70;;;11.80;99.90;;;;;;5104488;27;20458;-91
2022/04/24 07:44:17;;;;;;;0.50;0.30;;;11.70;99.90;;;;;;5102099;27;20462;-91
2022/04/24 07:46:44;;;;;;;0.50;0.50;;;11.50;99.90;;;;;;5106109;27;20477;-91
2022/04/24 07:49:11;;;;;;;0.40;0.30;;;11.50;99.90;;;;;;5122262;27;20461;-92
2022/04/24 07:51:38;;;;;;;1.23;1.13;;;11.60;99.90;;;;;;5108033;27;20518;-91
2022/04/24 07:54:05;;;;;;;0.30;0.20;;;11.80;99.90;;;;;;5108391;27;20482;-91
2022/04/24 07:56:34;;;;;;;1.20;1.13;;;12.20;99.90;;;;;;5111942;27;20914;-91
2022/04/24 07:59:01;;;;;;;0.77;0.60;;;12.50;99.90;;;;;;5115164;27;20499;-91
2022/04/24 08:01:28;;;;;;;2.43;1.23;;;12.70;99.90;;;;;;5108355;27;20496;-91
2022/04/24 08:03:55;;;;;;;0.60;0.60;;;13.00;99.90;;;;;;5109866;27;20899;-91
2022/04/24 08:06:22;;;;;;;0.60;0.60;;;13.00;99.90;;;;;;5104615;27;20525;-94
2022/04/24 08:08:49;;;;;;;1.40;1.30;;;13.20;99.90;;;;;;5104532;27;20548;-94
2022/04/24 08:11:16;;;;;;;0.93;0.70;;;13.20;99.90;;;;;;5106868;27;20540;-92
2022/04/24 08:13:45;;;;;;;0.30;0.20;;;13.60;99.90;;;;;;5116283;27;20495;-91
2022/04/24 08:16:12;;;;;;;0.50;0.50;;;13.80;99.90;;;;;;5106125;28;20457;-91
2022/04/24 08:18:39;;;;;;;0.40;0.30;;;14.40;99.90;;;;;;5108223;27;20468;-90
2022/04/24 08:21:06;;;;;;;3.80;1.17;;;14.90;99.90;;;;;;5106427;27;20901;-90
2022/04/24 08:23:33;;;;;;;1.33;1.13;;;14.80;99.90;;;;;;5108805;27;20484;-90
2022/04/24 08:26:00;;;;;;;1.47;0.50;;;14.70;99.90;;;;;;5108485;27;20462;-91
2022/04/24 08:28:27;;;;;;;0.60;0.60;;;14.30;99.90;;;;;;5110477;27;20510;-90
2022/04/24 08:30:56;;;;;;;2.90;0.93;;;14.40;99.90;;;;;;5108689;27;20481;-91
2022/04/24 08:33:23;;;;;;;0.40;0.40;;;14.40;99.90;;;;;;5102047;27;20485;-89
2022/04/24 08:35:50;;;;;;;0.70;0.30;;;13.90;99.90;;;;;;5105073;27;20544;-91
2022/04/24 08:38:17;;;;;;;0.50;0.50;;;14.00;99.90;;;;;;5108276;28;20465;-90
2022/04/24 08:40:45;;;;;;;2.50;0.67;;;13.80;99.90;;;;;;5107355;27;20540;-90
2022/04/24 08:43:14;;;;;;;1.27;1.27;;;13.70;99.90;;;;;;5117665;27;20928;-91
2022/04/24 08:45:43;;;;;;;0.77;0.47;;;14.00;99.90;;;;;;5110223;28;20473;-91
2022/04/24 08:48:11;;;;;;;3.23;0.30;;;13.70;99.90;;;;;;5105965;28;20473;-91
2022/04/24 08:50:39;;;;;;;0.80;0.50;;;13.80;99.90;;;;;;5122046;27;20511;-90
2022/04/24 08:53:09;;;;;;;1.27;0.60;;;14.10;99.90;;;;;;5105668;28;20490;-91
2022/04/24 08:55:36;;;;;;;0.97;0.97;;;14.00;99.90;;;;;;5114398;28;20623;-91
2022/04/24 08:58:03;;;;;;;0.87;0.30;;;14.30;99.90;;;;;;5118344;27;20878;-90
2022/04/24 09:00:30;;;;;;;0.43;0.43;;;14.40;99.90;;;;;;5106023;27;20467;-90
2022/04/24 09:02:58;;;;;;;0.50;0.50;;;14.30;99.90;;;;;;5108925;27;20807;-91
2022/04/24 09:05:28;;;;;;;0.50;0.50;;;14.70;99.90;;;;;;5108937;27;21019;-90
2022/04/24 09:08:06;;;;;;;0.50;0.43;;;14.90;99.90;;;;;;5106529;28;20854;-90
2022/04/24 09:10:32;;;;;;;0.40;0.30;;;15.00;99.90;;;;;;5110000;27;20529;-90
2022/04/24 09:13:03;;;;;;;0.90;0.90;;;15.10;99.90;;;;;;5107810;27;20526;-91
2022/04/24 09:15:33;;;;;;;1.03;0.93;;;15.20;99.90;;;;;;5117275;28;20438;-91
2022/04/24 09:18:01;;;;;;;1.53;1.27;;;15.00;99.90;;;;;;5130377;27;20464;-91
2022/04/24 09:20:34;;;;;;;0.40;0.40;;;15.20;99.90;;;;;;5129240;28;20500;-91
2022/04/24 09:23:03;;;;;;;1.07;1.07;;;15.30;99.90;;;;;;5118571;28;20467;-91
2022/04/24 09:25:38;;;;;;;2.47;0.90;;;15.30;99.90;;;;;;5118638;28;20535;-91
2022/04/24 09:28:06;;;;;;;0.83;0.50;;;15.20;99.90;;;;;;5113978;28;20469;-90
2022/04/24 09:30:35;;;;;;;0.83;0.40;;;15.70;99.90;;;;;;5107714;28;21182;-91
2022/04/24 09:33:03;;;;;;;1.00;0.33;;;16.00;99.90;;;;;;5104989;28;20501;-91
2022/04/24 09:35:33;;;;;;;0.50;0.50;;;15.40;99.90;;;;;;5107282;28;20464;-91
2022/04/24 09:38:10;;;;;;;0.73;0.60;;;15.10;99.90;;;;;;5112142;28;20473;-90
2022/04/24 09:40:41;;;;;;;0.77;0.77;;;14.90;99.90;;;;;;5106719;27;20467;-91
2022/04/24 09:43:10;;;;;;;1.20;1.20;;;14.70;99.90;;;;;;5120276;27;20468;-91
2022/04/24 09:45:38;;;;;;;1.17;1.07;;;14.40;99.90;;;;;;5121873;27;20556;-91
2022/04/24 09:48:13;;;;;;;0.43;0.43;;;14.40;99.90;;;;;;5127676;27;20588;-91
2022/04/24 09:50:42;;;;;;;0.40;0.20;;;14.40;99.90;;;;;;5115487;27;20533;-92
2022/04/24 09:53:13;;;;;;;1.87;0.97;;;14.40;99.90;;;;;;5111820;27;20871;-89
2022/04/24 09:55:41;;;;;;;0.40;0.40;;;14.40;99.90;;;;;;5108708;27;20580;-90
2022/04/24 09:58:09;;;;;;;0.73;0.40;;;14.40;99.90;;;;;;5109569;27;20475;-89
2022/04/24 10:00:37;;;;;;;2.70;0.70;;;14.50;99.90;;;;;;5108683;27;20484;-89
2022/04/24 10:03:05;;;;;;;0.50;0.50;;;14.70;99.90;;;;;;5110624;27;20520;-90
2022/04/24 10:05:33;;;;;;;1.07;0.53;;;15.20;99.90;;;;;;5112307;27;20986;-90
2022/04/24 10:08:02;;;;;;;1.13;1.03;;;15.00;99.90;;;;;;5122330;27;20510;-90
2022/04/24 10:10:30;;;;;;;0.50;0.50;;;15.00;99.90;;;;;;5125768;27;20448;-89
2022/04/24 10:13:00;;;;;;;0.80;0.70;;;14.70;99.90;;;;;;5118980;27;20477;-92
2022/04/24 10:15:29;;;;;;;1.03;0.90;;;14.50;99.90;;;;;;5112935;27;20855;-92
2022/04/24 10:18:23;;;;;;;0.77;0.77;;;14.60;99.90;;;;;;5114092;27;20907;-96
2022/04/24 10:20:59;;;;;;;0.97;0.97;;;14.80;99.90;;;;;;5107367;27;20492;-90
2022/04/24 10:23:33;;;;;;;0.40;0.20;;;15.30;99.90;;;;;;5105641;27;20473;-92
2022/04/24 10:26:01;;;;;;;2.50;0.67;;;15.80;99.90;;;;;;5112549;27;20468;-90
2022/04/24 10:28:38;;;;;;;0.50;0.50;;;16.00;99.90;;;;;;5110938;27;20462;-90
2022/04/24 10:31:06;;;;;;;0.50;0.50;;;16.20;99.90;;;;;;5109304;27;20471;-89
2022/04/24 10:33:34;;;;;;;0.50;0.40;;;16.10;99.90;;;;;;5120714;27;20486;-90
2022/04/24 10:36:05;;;;;;;0.50;0.47;;;16.20;99.90;;;;;;5130192;27;20450;-92
2022/04/24 10:38:34;;;;;;;3.30;2.00;;;16.30;99.90;;;;;;5112541;27;20517;-90
2022/04/24 10:41:03;;;;;;;0.40;0.30;;;16.40;99.90;;;;;;5109086;28;20448;-89
2022/04/24 10:43:40;;;;;;;0.30;0.30;;;16.50;99.90;;;;;;5107677;28;20517;-90
2022/04/24 10:46:18;;;;;;;0.40;0.30;;;16.70;99.90;;;;;;5108663;28;20452;-89
2022/04/24 10:48:46;;;;;;;0.40;0.30;;;16.30;98.40;;;;;;5106662;27;20461;-89
2022/04/24 10:51:13;;;;;;;0.40;0.40;;;16.50;97.90;;;;;;5108859;28;20451;-90
2022/04/24 10:53:52;;;;;;;0.60;0.33;;;16.40;97.60;;;;;;5106967;27;20487;-90
2022/04/24 10:56:19;;;;;;;0.37;0.30;;;16.30;97.20;;;;;;5123201;27;20490;-90
2022/04/24 10:58:48;;;;;;;3.23;0.40;;;16.60;98.80;;;;;;5123630;27;20512;-90
2022/04/24 11:01:16;;;;;;;0.90;0.50;;;16.90;96.80;;;;;;5108952;27;20464;-90
2022/04/24 11:03:45;;;;;;;0.37;0.30;;;16.70;96.40;;;;;;5106940;28;21273;-90
2022/04/24 11:06:20;;;;;;;0.50;0.50;;;16.70;97.00;;;;;;5108420;28;20504;-90
2022/04/24 11:08:47;;;;;;;4.67;0.83;;;16.80;97.40;;;;;;5106904;27;20468;-90
2022/04/24 11:11:16;;;;;;;0.60;0.60;;;17.00;96.40;;;;;;5108209;28;20842;-90
2022/04/24 11:13:43;;;;;;;0.40;0.30;;;16.70;93.80;;;;;;5107105;27;20541;-90
2022/04/24 11:16:12;;;;;;;0.40;0.30;;;16.70;96.20;;;;;;5108430;28;20509;-89
2022/04/24 11:18:45;;;;;;;0.40;0.20;;;16.80;94.70;;;;;;5121472;27;20455;-91
2022/04/24 11:21:16;;;;;;;0.53;0.53;;;16.60;94.30;;;;;;5115114;27;20461;-90
2022/04/24 11:23:43;;;;;;;0.83;0.57;;;16.60;94.70;;;;;;5106157;28;20465;-90
2022/04/24 11:26:12;;;;;;;0.40;0.33;;;16.80;94.90;;;;;;5109092;27;20459;-90
2022/04/24 11:28:43;;;;;;;0.60;0.50;;;16.80;95.40;;;;;;5106411;27;20914;-90
2022/04/24 11:31:13;;;;;;;0.50;0.30;;;16.80;94.20;;;;;;5128804;27;20452;-90
2022/04/24 11:33:55;;;;;;;0.67;0.60;;;17.10;94.70;;;;;;5112311;27;21093;-90
2022/04/24 11:36:23;;;;;;;0.40;0.30;;;17.20;95.70;;;;;;5108264;27;20484;-90
2022/04/24 11:38:51;;;;;;;1.43;1.33;;;16.90;93.40;;;;;;5107883;28;20434;-90
2022/04/24 11:41:20;;;;;;;0.50;0.40;;;17.00;93.90;;;;;;5107746;28;20757;-90
2022/04/24 11:43:48;;;;;;;0.50;0.50;;;16.80;93.90;;;;;;5120073;27;20491;-90
2022/04/24 11:51:53;;;;;;;0.97;0.30;;;17.40;92.60;;;;;;5119668;27;20781;-90
2022/04/24 11:54:20;;;;;;;0.93;0.43;;;17.80;90.80;;;;;;5117025;27;20600;-90
2022/04/24 11:56:51;;;;;;;0.40;0.30;;;17.90;90.90;;;;;;5125429;27;21024;-90
2022/04/24 11:59:21;;;;;;;1.00;0.37;;;17.80;90.70;;;;;;5127431;27;20455;-90
2022/04/24 12:01:56;;;;;;;0.70;0.70;;;17.00;90.50;;;;;;5106112;28;20446;-90
2022/04/24 12:04:27;;;;;;;0.30;0.20;;;17.10;92.30;;;;;;5106513;28;20967;-90
2022/04/24 12:07:02;;;;;;;2.10;0.40;;;17.60;92.80;;;;;;5107184;28;20526;-91
2022/04/24 12:09:29;;;;;;;0.43;0.43;;;17.60;90.90;;;;;;5106541;28;20477;-90
2022/04/24 12:12:05;;;;;;;0.70;0.70;;;17.00;90.10;;;;;;5106972;28;21013;-91
2022/04/24 12:14:33;;;;;;;0.67;0.50;;;16.90;89.40;;;;;;5107293;28;20524;-91
2022/04/24 12:17:04;;;;;;;0.33;0.27;;;16.70;90.40;;;;;;5107252;28;20552;-91
2022/04/24 12:19:31;;;;;;;0.60;0.50;;;16.80;91.60;;;;;;5112908;27;20480;-90
2022/04/24 12:22:06;;;;;;;0.40;0.37;;;16.60;90.10;;;;;;5116272;27;20536;-90
2022/04/24 12:24:40;;;;;;;3.77;0.40;;;16.60;91.80;;;;;;5105434;28;20525;-90
2022/04/24 12:27:09;;;;;;;1.27;0.50;;;16.70;91.70;;;;;;5127003;27;20530;-90
2022/04/24 12:29:42;;;;;;;2.70;0.47;;;16.40;92.70;;;;;;5114553;27;20448;-90
2022/04/24 12:32:12;;;;;;;1.10;1.03;;;16.20;92.40;;;;;;5127280;27;20531;-90
2022/04/24 12:34:40;;;;;;;2.13;0.40;;;15.90;91.70;;;;;;5111523;27;20488;-90
2022/04/24 12:37:08;;;;;;;1.60;1.40;;;15.80;92.20;;;;;;5112387;28;20805;-90
2022/04/24 12:39:35;;;;;;;0.40;0.40;;;15.60;92.30;;;;;;5144734;27;20500;-90
2022/04/24 12:42:14;;;;;;;0.90;0.90;;;15.40;92.70;;;;;;5147176;28;20439;-90
2022/04/24 12:44:43;;;;;;;0.40;0.33;;;15.40;93.00;;;;;;5122900;28;20454;-90
2022/04/24 12:47:10;;;;;;;0.40;0.37;;;15.20;93.40;;;;;;5123063;28;20903;-90
2022/04/24 12:49:37;;;;;;;0.67;0.57;;;15.10;93.60;;;;;;5111937;28;20447;-90
2022/04/24 12:52:04;;;;;;;0.33;0.27;;;14.90;93.80;;;;;;5118441;28;20450;-89
2022/04/24 12:54:31;;;;;;;0.30;0.20;;;14.80;93.30;;;;;;5105775;28;20506;-90
2022/04/24 12:56:58;;;;;;;0.80;0.57;;;14.70;93.50;;;;;;5107763;28;20897;-92
2022/04/24 12:59:25;;;;;;;0.30;0.20;;;14.60;94.20;;;;;;5107517;28;20506;-92
2022/04/24 13:01:54;;;;;;;0.30;0.30;;;14.50;93.10;;;;;;5113678;28;20866;-92
2022/04/24 13:04:21;;;;;;;0.30;0.20;;;14.50;93.20;;;;;;5106484;28;20447;-91